createdAt,value
2019-03-18T00:00:20.807Z,12.00
2019-03-18T00:01:20.789Z,12.00
2019-03-18T00:02:20.778Z,12.00
2019-03-18T00:03:20.762Z,12.00
2019-03-18T00:04:20.756Z,12.00
2019-03-18T00:05:20.757Z,12.00
2019-03-18T00:06:20.731Z,12.00
2019-03-18T00:07:20.721Z,12.00
2019-03-18T00:08:20.707Z,12.00
2019-03-18T00:09:20.699Z,12.00
2019-03-18T00:10:20.681Z,12.00
2019-03-18T00:11:27.233Z,12.00
2019-03-18T00:12:20.663Z,12.00
2019-03-18T00:13:20.650Z,12.00
2019-03-18T00:14:20.645Z,12.00
2019-03-18T00:15:20.675Z,12.00
2019-03-18T00:16:20.613Z,12.00
2019-03-18T00:17:20.606Z,12.00
2019-03-18T00:18:20.591Z,12.00
2019-03-18T00:19:20.584Z,12.00
2019-03-18T00:20:20.570Z,12.00
2019-03-18T00:21:20.596Z,12.00
2019-03-18T00:22:20.542Z,16.00
2019-03-18T00:23:20.582Z,16.00
2019-03-18T00:24:20.520Z,16.00
2019-03-18T00:25:20.514Z,16.00
2019-03-18T00:26:20.499Z,12.00
2019-03-18T00:27:20.527Z,12.00
2019-03-18T00:28:20.475Z,12.00
2019-03-18T00:29:20.467Z,12.00
2019-03-18T00:30:20.458Z,12.00
2019-03-18T00:31:20.447Z,12.00
2019-03-18T00:32:20.433Z,12.00
2019-03-18T00:33:20.456Z,12.00
2019-03-18T00:34:20.409Z,12.00
2019-03-18T00:35:20.393Z,12.00
2019-03-18T00:36:20.388Z,12.00
2019-03-18T00:37:20.376Z,12.00
2019-03-18T00:38:20.366Z,12.00
2019-03-18T00:39:20.389Z,12.00
2019-03-18T00:40:20.347Z,12.00
2019-03-18T00:41:20.330Z,12.00
2019-03-18T00:42:20.314Z,8.00
2019-03-18T00:43:26.475Z,12.00
2019-03-18T00:44:20.293Z,12.00
2019-03-18T00:45:20.295Z,12.00
2019-03-18T00:46:20.271Z,12.00
2019-03-18T00:47:20.268Z,12.00
2019-03-18T00:48:20.284Z,12.00
2019-03-18T00:49:20.240Z,12.00
2019-03-18T00:50:20.226Z,12.00
2019-03-18T00:51:20.217Z,12.00
2019-03-18T00:52:20.203Z,12.00
2019-03-18T00:53:20.196Z,12.00
2019-03-18T00:54:20.212Z,12.00
2019-03-18T00:55:20.165Z,12.00
2019-03-18T00:56:20.155Z,12.00
2019-03-18T00:57:20.149Z,12.00
2019-03-18T00:58:20.144Z,12.00
2019-03-18T00:59:20.117Z,12.00
2019-03-18T01:00:20.122Z,12.00
2019-03-18T01:01:20.099Z,12.00
2019-03-18T01:02:20.083Z,12.00
2019-03-18T01:03:20.076Z,12.00
2019-03-18T01:04:20.062Z,16.00
2019-03-18T01:05:20.062Z,16.00
2019-03-18T01:06:20.048Z,16.00
2019-03-18T01:07:20.025Z,16.00
2019-03-18T01:08:20.022Z,16.00
2019-03-18T01:09:20.006Z,12.00
2019-03-18T01:10:19.997Z,12.00
2019-03-18T01:11:20.025Z,12.00
2019-03-18T01:12:19.978Z,12.00
2019-03-18T01:13:19.965Z,12.00
2019-03-18T01:14:19.948Z,12.00
2019-03-18T01:15:28.345Z,12.00
2019-03-18T01:16:19.923Z,12.00
2019-03-18T01:17:19.946Z,12.00
2019-03-18T01:18:19.902Z,12.00
2019-03-18T01:19:19.888Z,12.00
2019-03-18T01:20:19.878Z,12.00
2019-03-18T01:21:19.870Z,12.00
2019-03-18T01:22:19.863Z,12.00
2019-03-18T01:23:19.920Z,12.00
2019-03-18T01:24:19.839Z,12.00
2019-03-18T01:25:19.826Z,12.00
2019-03-18T01:26:19.812Z,12.00
2019-03-18T01:27:19.798Z,12.00
2019-03-18T01:28:19.789Z,12.00
2019-03-18T01:29:19.784Z,12.00
2019-03-18T01:30:19.762Z,12.00
2019-03-18T01:31:19.750Z,12.00
2019-03-18T01:32:19.746Z,12.00
2019-03-18T01:33:19.727Z,12.00
2019-03-18T01:34:19.744Z,12.00
2019-03-18T01:35:19.713Z,12.00
2019-03-18T01:36:19.694Z,12.00
2019-03-18T01:37:19.688Z,12.00
2019-03-18T01:38:19.672Z,12.00
2019-03-18T01:39:19.668Z,12.00
2019-03-18T01:40:19.690Z,12.00
2019-03-18T01:41:19.638Z,12.00
2019-03-18T01:42:19.632Z,12.00
2019-03-18T01:43:19.632Z,12.00
2019-03-18T01:44:19.609Z,12.00
2019-03-18T01:45:19.599Z,12.00
2019-03-18T01:46:19.657Z,12.00
2019-03-18T01:47:25.663Z,12.00
2019-03-18T01:48:19.634Z,12.00
2019-03-18T01:49:19.549Z,12.00
2019-03-18T01:50:19.539Z,12.00
2019-03-18T01:51:19.523Z,12.00
2019-03-18T01:52:19.521Z,12.00
2019-03-18T01:53:19.501Z,12.00
2019-03-18T01:54:19.486Z,12.00
2019-03-18T01:55:19.474Z,12.00
2019-03-18T01:56:19.485Z,16.00
2019-03-18T01:57:19.457Z,16.00
2019-03-18T01:58:19.441Z,16.00
2019-03-18T01:59:19.438Z,16.00
2019-03-18T02:00:19.421Z,12.00
2019-03-18T02:01:19.414Z,12.00
2019-03-18T02:02:19.436Z,12.00
2019-03-18T02:03:19.436Z,12.00
2019-03-18T02:04:19.373Z,12.00
2019-03-18T02:05:19.364Z,12.00
2019-03-18T02:06:19.349Z,12.00
2019-03-18T02:07:19.340Z,12.00
2019-03-18T02:08:19.337Z,12.00
2019-03-18T02:09:19.316Z,12.00
2019-03-18T02:10:19.314Z,12.00
2019-03-18T02:11:19.296Z,12.00
2019-03-18T02:12:19.282Z,12.00
2019-03-18T02:13:19.311Z,12.00
2019-03-18T02:14:19.263Z,12.00
2019-03-18T02:15:19.249Z,12.00
2019-03-18T02:16:19.243Z,12.00
2019-03-18T02:17:19.225Z,12.00
2019-03-18T02:18:19.210Z,12.00
2019-03-18T02:19:25.805Z,12.00
2019-03-18T02:20:20.002Z,12.00
2019-03-18T02:21:19.177Z,12.00
2019-03-18T02:22:19.195Z,12.00
2019-03-18T02:23:19.153Z,12.00
2019-03-18T02:24:19.148Z,12.00
2019-03-18T02:25:19.150Z,12.00
2019-03-18T02:26:19.121Z,12.00
2019-03-18T02:27:19.111Z,12.00
2019-03-18T02:28:19.095Z,12.00
2019-03-18T02:29:19.091Z,12.00
2019-03-18T02:30:19.268Z,12.00
2019-03-18T02:31:19.064Z,12.00
2019-03-18T02:32:19.050Z,12.00
2019-03-18T02:33:19.043Z,12.00
2019-03-18T02:34:19.038Z,12.00
2019-03-18T02:35:19.022Z,12.00
2019-03-18T02:36:19.049Z,12.00
2019-03-18T02:37:18.994Z,12.00
2019-03-18T02:38:19.056Z,12.00
2019-03-18T02:39:18.984Z,12.00
2019-03-18T02:40:18.984Z,12.00
2019-03-18T02:41:18.945Z,12.00
2019-03-18T02:42:18.979Z,12.00
2019-03-18T02:43:18.924Z,12.00
2019-03-18T02:44:18.920Z,12.00
2019-03-18T02:45:18.900Z,12.00
2019-03-18T02:46:18.894Z,12.00
2019-03-18T02:47:18.882Z,12.00
2019-03-18T02:48:18.874Z,12.00
2019-03-18T02:49:18.865Z,12.00
2019-03-18T02:50:18.850Z,12.00
2019-03-18T02:51:25.822Z,12.00
2019-03-18T02:52:18.863Z,12.00
2019-03-18T02:53:18.814Z,12.00
2019-03-18T02:54:18.803Z,12.00
2019-03-18T02:55:18.791Z,12.00
2019-03-18T02:56:18.774Z,12.00
2019-03-18T02:57:18.768Z,12.00
2019-03-18T02:58:18.797Z,16.00
2019-03-18T02:59:18.743Z,16.00
2019-03-18T03:00:18.737Z,16.00
2019-03-18T03:01:18.718Z,16.00
2019-03-18T03:02:18.717Z,12.00
2019-03-18T03:03:18.792Z,12.00
2019-03-18T03:04:18.704Z,12.00
2019-03-18T03:05:18.701Z,12.00
2019-03-18T03:06:18.670Z,12.00
2019-03-18T03:07:18.650Z,12.00
2019-03-18T03:08:18.637Z,12.00
2019-03-18T03:09:18.659Z,12.00
2019-03-18T03:10:18.788Z,12.00
2019-03-18T03:11:18.719Z,12.00
2019-03-18T03:12:18.597Z,12.00
2019-03-18T03:13:18.586Z,12.00
2019-03-18T03:14:18.576Z,12.00
2019-03-18T03:15:18.567Z,12.00
2019-03-18T03:16:26.305Z,12.00
2019-03-18T03:17:21.612Z,12.00
2019-03-18T03:18:18.529Z,12.00
2019-03-18T03:19:18.521Z,12.00
2019-03-18T03:20:18.513Z,12.00
2019-03-18T03:21:18.494Z,12.00
2019-03-18T03:22:18.482Z,12.00
2019-03-18T03:23:24.560Z,12.00
2019-03-18T03:24:18.470Z,12.00
2019-03-18T03:25:18.448Z,12.00
2019-03-18T03:26:18.431Z,12.00
2019-03-18T03:27:18.423Z,12.00
2019-03-18T03:28:18.421Z,12.00
2019-03-18T03:29:18.415Z,12.00
2019-03-18T03:30:18.391Z,16.00
2019-03-18T03:31:18.389Z,16.00
2019-03-18T03:32:18.367Z,12.00
2019-03-18T03:33:18.400Z,12.00
2019-03-18T03:34:18.346Z,12.00
2019-03-18T03:35:18.357Z,12.00
2019-03-18T03:36:18.323Z,12.00
2019-03-18T03:37:18.322Z,12.00
2019-03-18T03:38:18.297Z,12.00
2019-03-18T03:39:18.288Z,12.00
2019-03-18T03:40:18.289Z,12.00
2019-03-18T03:41:18.725Z,12.00
2019-03-18T03:42:18.256Z,12.00
2019-03-18T03:43:18.284Z,12.00
2019-03-18T03:44:18.231Z,12.00
2019-03-18T03:45:18.223Z,12.00
2019-03-18T03:46:18.206Z,12.00
2019-03-18T03:47:18.196Z,12.00
2019-03-18T03:48:18.183Z,12.00
2019-03-18T03:49:18.181Z,12.00
2019-03-18T03:50:18.162Z,12.00
2019-03-18T03:51:18.173Z,12.00
2019-03-18T03:52:18.134Z,16.00
2019-03-18T03:53:18.126Z,12.00
2019-03-18T03:54:18.157Z,16.00
2019-03-18T03:55:24.199Z,16.00
2019-03-18T03:56:18.094Z,16.00
2019-03-18T03:57:18.080Z,16.00
2019-03-18T03:58:18.074Z,16.00
2019-03-18T03:59:18.057Z,16.00
2019-03-18T04:00:18.083Z,16.00
2019-03-18T04:01:18.034Z,16.00
2019-03-18T04:02:18.025Z,16.00
2019-03-18T04:03:18.014Z,16.00
2019-03-18T04:04:18.001Z,16.00
2019-03-18T04:05:17.993Z,16.00
2019-03-18T04:06:18.077Z,16.00
2019-03-18T04:07:17.969Z,16.00
2019-03-18T04:08:17.955Z,16.00
2019-03-18T04:09:17.938Z,16.00
2019-03-18T04:10:17.946Z,16.00
2019-03-18T04:11:17.937Z,16.00
2019-03-18T04:12:17.923Z,16.00
2019-03-18T04:13:17.921Z,16.00
2019-03-18T04:14:17.881Z,16.00
2019-03-18T04:15:17.880Z,16.00
2019-03-18T04:16:17.863Z,16.00
2019-03-18T04:17:17.847Z,16.00
2019-03-18T04:18:17.850Z,16.00
2019-03-18T04:19:17.834Z,16.00
2019-03-18T04:20:17.820Z,16.00
2019-03-18T04:21:17.805Z,16.00
2019-03-18T04:22:17.796Z,16.00
2019-03-18T04:23:17.786Z,16.00
2019-03-18T04:24:17.785Z,16.00
2019-03-18T04:25:17.767Z,16.00
2019-03-18T04:26:17.748Z,16.00
2019-03-18T04:27:24.945Z,20.00
2019-03-18T04:28:17.727Z,20.00
2019-03-18T04:29:17.716Z,20.00
2019-03-18T04:30:17.948Z,20.00
2019-03-18T04:31:17.694Z,20.00
2019-03-18T04:32:17.679Z,16.00
2019-03-18T04:33:17.667Z,20.00
2019-03-18T04:34:17.668Z,20.00
2019-03-18T04:35:17.646Z,20.00
2019-03-18T04:36:17.674Z,20.00
2019-03-18T04:37:17.615Z,24.00
2019-03-18T04:38:17.607Z,20.00
2019-03-18T04:39:17.594Z,100.00
2019-03-18T04:40:17.588Z,104.00
2019-03-18T04:41:17.572Z,108.00
2019-03-18T04:42:17.567Z,108.00
2019-03-18T04:43:17.623Z,108.00
2019-03-18T04:44:17.538Z,108.00
2019-03-18T04:45:17.533Z,108.00
2019-03-18T04:46:17.514Z,24.00
2019-03-18T04:47:17.523Z,24.00
2019-03-18T04:48:17.493Z,24.00
2019-03-18T04:49:17.478Z,24.00
2019-03-18T04:50:17.490Z,24.00
2019-03-18T04:51:17.463Z,28.00
2019-03-18T04:52:17.447Z,24.00
2019-03-18T04:53:17.481Z,24.00
2019-03-18T04:54:17.422Z,24.00
2019-03-18T04:55:17.416Z,24.00
2019-03-18T04:56:17.405Z,24.00
2019-03-18T04:57:17.387Z,24.00
2019-03-18T04:58:17.377Z,28.00
2019-03-18T04:59:23.902Z,28.00
2019-03-18T05:00:17.355Z,28.00
2019-03-18T05:01:17.340Z,28.00
2019-03-18T05:02:17.328Z,28.00
2019-03-18T05:03:17.321Z,28.00
2019-03-18T05:04:17.311Z,28.00
2019-03-18T05:05:17.301Z,28.00
2019-03-18T05:06:17.357Z,28.00
2019-03-18T05:07:17.277Z,28.00
2019-03-18T05:08:17.263Z,28.00
2019-03-18T05:09:17.253Z,32.00
2019-03-18T05:10:17.257Z,32.00
2019-03-18T05:11:17.264Z,32.00
2019-03-18T05:12:17.216Z,32.00
2019-03-18T05:13:17.206Z,32.00
2019-03-18T05:14:17.201Z,36.00
2019-03-18T05:15:17.183Z,36.00
2019-03-18T05:16:17.170Z,36.00
2019-03-18T05:17:26.163Z,108.00
2019-03-18T05:18:18.149Z,124.00
2019-03-18T05:19:17.140Z,128.00
2019-03-18T05:20:17.169Z,124.00
2019-03-18T05:21:17.115Z,128.00
2019-03-18T05:22:17.103Z,44.00
2019-03-18T05:23:17.134Z,44.00
2019-03-18T05:24:17.080Z,128.00
2019-03-18T05:25:17.071Z,132.00
2019-03-18T05:26:17.063Z,128.00
2019-03-18T05:27:17.046Z,128.00
2019-03-18T05:28:17.030Z,128.00
2019-03-18T05:29:17.027Z,48.00
2019-03-18T05:30:17.012Z,44.00
2019-03-18T05:31:23.383Z,44.00
2019-03-18T05:32:16.990Z,44.00
2019-03-18T05:33:17.010Z,48.00
2019-03-18T05:34:16.961Z,56.00
2019-03-18T05:35:16.948Z,56.00
2019-03-18T05:36:16.941Z,56.00
2019-03-18T05:37:16.930Z,136.00
2019-03-18T05:38:16.925Z,140.00
2019-03-18T05:39:16.913Z,140.00
2019-03-18T05:40:16.906Z,140.00
2019-03-18T05:41:16.888Z,120.00
2019-03-18T05:42:16.869Z,60.00
2019-03-18T05:43:16.869Z,64.00
2019-03-18T05:44:16.895Z,64.00
2019-03-18T05:45:16.839Z,68.00
2019-03-18T05:46:16.825Z,64.00
2019-03-18T05:47:16.812Z,148.00
2019-03-18T05:48:16.801Z,148.00
2019-03-18T05:49:16.789Z,144.00
2019-03-18T05:50:16.818Z,144.00
2019-03-18T05:51:16.772Z,144.00
2019-03-18T05:52:16.754Z,140.00
2019-03-18T05:53:16.748Z,144.00
2019-03-18T05:54:16.732Z,148.00
2019-03-18T05:55:16.722Z,148.00
2019-03-18T05:56:16.727Z,148.00
2019-03-18T05:57:16.705Z,148.00
2019-03-18T05:58:16.687Z,144.00
2019-03-18T05:59:16.680Z,144.00
2019-03-18T06:00:16.675Z,148.00
2019-03-18T06:01:16.676Z,148.00
2019-03-18T06:02:16.646Z,148.00
2019-03-18T06:03:23.016Z,148.00
2019-03-18T06:04:16.620Z,152.00
2019-03-18T06:05:16.611Z,152.00
2019-03-18T06:06:16.597Z,152.00
2019-03-18T06:07:16.627Z,152.00
2019-03-18T06:08:16.579Z,152.00
2019-03-18T06:09:16.563Z,152.00
2019-03-18T06:10:16.548Z,152.00
2019-03-18T06:11:16.550Z,156.00
2019-03-18T06:12:16.528Z,156.00
2019-03-18T06:13:16.559Z,156.00
2019-03-18T06:14:16.509Z,156.00
2019-03-18T06:15:16.491Z,152.00
2019-03-18T06:16:16.486Z,156.00
2019-03-18T06:17:16.474Z,156.00
2019-03-18T06:18:16.460Z,152.00
2019-03-18T06:19:16.465Z,156.00
2019-03-18T06:20:16.442Z,160.00
2019-03-18T06:21:16.428Z,156.00
2019-03-18T06:22:16.417Z,156.00
2019-03-18T06:23:16.402Z,156.00
2019-03-18T06:24:16.394Z,156.00
2019-03-18T06:25:16.425Z,156.00
2019-03-18T06:26:16.367Z,156.00
2019-03-18T06:27:16.361Z,156.00
2019-03-18T06:28:16.343Z,156.00
2019-03-18T06:29:16.334Z,156.00
2019-03-18T06:30:16.328Z,160.00
2019-03-18T06:31:16.321Z,164.00
2019-03-18T06:32:16.305Z,168.00
2019-03-18T06:33:16.286Z,164.00
2019-03-18T06:34:16.278Z,164.00
2019-03-18T06:35:22.363Z,120.00
2019-03-18T06:36:16.272Z,164.00
2019-03-18T06:37:16.246Z,168.00
2019-03-18T06:38:16.231Z,172.00
2019-03-18T06:39:16.237Z,172.00
2019-03-18T06:40:16.208Z,168.00
2019-03-18T06:41:16.199Z,172.00
2019-03-18T06:42:18.582Z,124.00
2019-03-18T06:43:16.177Z,124.00
2019-03-18T06:44:16.172Z,180.00
2019-03-18T06:45:16.157Z,184.00
2019-03-18T06:46:16.140Z,184.00
2019-03-18T06:47:16.129Z,188.00
2019-03-18T06:48:16.129Z,188.00
2019-03-18T06:49:16.104Z,184.00
2019-03-18T06:50:16.093Z,184.00
2019-03-18T06:51:16.079Z,188.00
2019-03-18T06:52:16.069Z,188.00
2019-03-18T06:53:16.068Z,192.00
2019-03-18T06:54:16.050Z,196.00
2019-03-18T06:55:16.042Z,196.00
2019-03-18T06:56:16.021Z,200.00
2019-03-18T06:57:16.013Z,200.00
2019-03-18T06:58:16.104Z,196.00
2019-03-18T06:59:15.992Z,164.00
2019-03-18T07:00:15.983Z,164.00
2019-03-18T07:01:15.969Z,204.00
2019-03-18T07:02:15.953Z,204.00
2019-03-18T07:03:15.946Z,192.00
2019-03-18T07:04:15.964Z,184.00
2019-03-18T07:05:15.920Z,184.00
2019-03-18T07:06:15.910Z,188.00
2019-03-18T07:07:22.284Z,188.00
2019-03-18T07:08:15.891Z,188.00
2019-03-18T07:09:15.881Z,188.00
2019-03-18T07:10:15.877Z,184.00
2019-03-18T07:11:15.851Z,180.00
2019-03-18T07:12:15.841Z,184.00
2019-03-18T07:13:15.832Z,196.00
2019-03-18T07:14:15.815Z,204.00
2019-03-18T07:15:15.819Z,204.00
2019-03-18T07:16:15.792Z,196.00
2019-03-18T07:17:15.787Z,188.00
2019-03-18T07:18:18.599Z,192.00
2019-03-18T07:19:15.760Z,152.00
2019-03-18T07:20:15.783Z,160.00
2019-03-18T07:21:15.733Z,164.00
2019-03-18T07:22:15.724Z,160.00
2019-03-18T07:23:15.711Z,168.00
2019-03-18T07:24:15.703Z,176.00
2019-03-18T07:25:15.690Z,176.00
2019-03-18T07:26:15.697Z,160.00
2019-03-18T07:27:15.664Z,180.00
2019-03-18T07:28:17.986Z,192.00
2019-03-18T07:29:15.641Z,196.00
2019-03-18T07:30:15.630Z,204.00
2019-03-18T07:31:15.658Z,212.00
2019-03-18T07:32:15.616Z,216.00
2019-03-18T07:33:15.596Z,216.00
2019-03-18T07:34:15.590Z,220.00
2019-03-18T07:35:15.579Z,216.00
2019-03-18T07:36:15.562Z,220.00
2019-03-18T07:37:15.570Z,228.00
2019-03-18T07:38:15.540Z,216.00
2019-03-18T07:39:21.620Z,204.00
2019-03-18T07:40:15.518Z,204.00
2019-03-18T07:41:15.510Z,212.00
2019-03-18T07:42:15.534Z,216.00
2019-03-18T07:43:15.485Z,236.00
2019-03-18T07:44:15.474Z,244.00
2019-03-18T07:45:16.223Z,244.00
2019-03-18T07:46:15.454Z,244.00
2019-03-18T07:47:15.436Z,256.00
2019-03-18T07:48:15.436Z,264.00
2019-03-18T07:49:15.431Z,280.00
2019-03-18T07:50:15.404Z,296.00
2019-03-18T07:51:15.417Z,268.00
2019-03-18T07:52:15.381Z,280.00
2019-03-18T07:53:18.138Z,260.00
2019-03-18T07:54:15.430Z,280.00
2019-03-18T07:55:15.383Z,256.00
2019-03-18T07:56:15.339Z,232.00
2019-03-18T07:57:15.319Z,232.00
2019-03-18T07:58:15.307Z,224.00
2019-03-18T07:59:15.303Z,224.00
2019-03-18T08:00:15.289Z,228.00
2019-03-18T08:01:15.311Z,224.00
2019-03-18T08:02:15.333Z,220.00
2019-03-18T08:03:15.251Z,232.00
2019-03-18T08:04:15.239Z,244.00
2019-03-18T08:05:15.228Z,252.00
2019-03-18T08:06:15.224Z,268.00
2019-03-18T08:07:15.253Z,280.00
2019-03-18T08:08:15.256Z,276.00
2019-03-18T08:09:15.187Z,272.00
2019-03-18T08:10:15.173Z,256.00
2019-03-18T08:11:21.250Z,248.00
2019-03-18T08:12:15.147Z,252.00
2019-03-18T08:13:15.176Z,292.00
2019-03-18T08:14:16.082Z,368.00
2019-03-18T08:15:15.113Z,412.00
2019-03-18T08:16:15.110Z,412.00
2019-03-18T08:17:15.094Z,392.00
2019-03-18T08:18:15.080Z,368.00
2019-03-18T08:19:15.107Z,336.00
2019-03-18T08:20:15.056Z,328.00
2019-03-18T08:21:15.042Z,312.00
2019-03-18T08:22:15.035Z,304.00
2019-03-18T08:23:15.026Z,296.00
2019-03-18T08:24:15.009Z,292.00
2019-03-18T08:25:15.099Z,280.00
2019-03-18T08:26:14.995Z,284.00
2019-03-18T08:27:14.982Z,308.00
2019-03-18T08:28:14.964Z,344.00
2019-03-18T08:29:14.951Z,328.00
2019-03-18T08:30:14.943Z,316.00
2019-03-18T08:31:14.944Z,332.00
2019-03-18T08:32:14.917Z,332.00
2019-03-18T08:33:14.904Z,264.00
2019-03-18T08:34:14.937Z,252.00
2019-03-18T08:35:14.886Z,300.00
2019-03-18T08:36:14.872Z,328.00
2019-03-18T08:37:14.864Z,360.00
2019-03-18T08:38:14.851Z,320.00
2019-03-18T08:39:14.836Z,304.00
2019-03-18T08:40:14.866Z,284.00
2019-03-18T08:41:14.813Z,272.00
2019-03-18T08:42:14.803Z,248.00
2019-03-18T08:43:22.829Z,284.00
2019-03-18T08:44:14.784Z,316.00
2019-03-18T08:45:14.771Z,280.00
2019-03-18T08:46:14.766Z,260.00
2019-03-18T08:47:14.750Z,252.00
2019-03-18T08:48:14.734Z,292.00
2019-03-18T08:49:14.728Z,252.00
2019-03-18T08:50:14.707Z,272.00
2019-03-18T08:51:14.723Z,276.00
2019-03-18T08:52:14.688Z,268.00
2019-03-18T08:53:14.718Z,276.00
2019-03-18T08:54:14.669Z,244.00
2019-03-18T08:55:14.658Z,228.00
2019-03-18T08:56:14.652Z,224.00
2019-03-18T08:57:14.650Z,220.00
2019-03-18T08:58:14.621Z,220.00
2019-03-18T08:59:14.611Z,208.00
2019-03-18T09:00:14.600Z,212.00
2019-03-18T09:01:14.588Z,224.00
2019-03-18T09:02:14.590Z,232.00
2019-03-18T09:03:14.566Z,208.00
2019-03-18T09:04:14.547Z,208.00
2019-03-18T09:05:14.551Z,208.00
2019-03-18T09:06:14.533Z,216.00
2019-03-18T09:07:14.516Z,224.00
2019-03-18T09:08:14.581Z,212.00
2019-03-18T09:09:14.493Z,224.00
2019-03-18T09:10:14.491Z,252.00
2019-03-18T09:11:14.469Z,252.00
2019-03-18T09:12:14.462Z,228.00
2019-03-18T09:13:14.450Z,240.00
2019-03-18T09:14:14.456Z,240.00
2019-03-18T09:15:20.526Z,232.00
2019-03-18T09:16:14.412Z,224.00
2019-03-18T09:17:14.402Z,304.00
2019-03-18T09:18:14.393Z,312.00
2019-03-18T09:19:14.373Z,316.00
2019-03-18T09:20:14.377Z,360.00
2019-03-18T09:21:14.355Z,356.00
2019-03-18T09:22:14.341Z,312.00
2019-03-18T09:23:14.330Z,320.00
2019-03-18T09:24:14.324Z,316.00
2019-03-18T09:25:14.348Z,336.00
2019-03-18T09:26:14.300Z,328.00
2019-03-18T09:27:14.281Z,344.00
2019-03-18T09:28:14.272Z,344.00
2019-03-18T09:29:14.260Z,352.00
2019-03-18T09:30:14.249Z,384.00
2019-03-18T09:31:14.304Z,424.00
2019-03-18T09:32:14.234Z,436.00
2019-03-18T09:33:14.219Z,440.00
2019-03-18T09:34:14.206Z,552.00
2019-03-18T09:35:14.195Z,464.00
2019-03-18T09:36:14.220Z,424.00
2019-03-18T09:37:14.165Z,452.00
2019-03-18T09:38:14.162Z,408.00
2019-03-18T09:39:14.141Z,332.00
2019-03-18T09:40:14.139Z,324.00
2019-03-18T09:41:14.125Z,344.00
2019-03-18T09:42:14.124Z,408.00
2019-03-18T09:43:14.106Z,456.00
2019-03-18T09:44:14.088Z,512.00
2019-03-18T09:45:14.077Z,560.00
2019-03-18T09:46:14.077Z,476.00
2019-03-18T09:47:20.560Z,432.00
2019-03-18T09:48:14.045Z,492.00
2019-03-18T09:49:21.437Z,492.00
2019-03-18T09:50:15.020Z,424.00
2019-03-18T09:51:14.003Z,396.00
2019-03-18T09:52:13.996Z,388.00
2019-03-18T09:53:14.020Z,376.00
2019-03-18T09:54:13.973Z,376.00
2019-03-18T09:55:14.030Z,380.00
2019-03-18T09:56:13.952Z,416.00
2019-03-18T09:57:25.336Z,428.00
2019-03-18T09:58:14.943Z,428.00
2019-03-18T09:59:13.912Z,432.00
2019-03-18T10:00:13.903Z,444.00
2019-03-18T10:01:13.893Z,480.00
2019-03-18T10:02:13.875Z,520.00
2019-03-18T10:03:13.866Z,516.00
2019-03-18T10:04:13.897Z,456.00
2019-03-18T10:05:13.842Z,436.00
2019-03-18T10:06:13.829Z,412.00
2019-03-18T10:07:13.816Z,396.00
2019-03-18T10:08:13.808Z,404.00
2019-03-18T10:09:13.796Z,376.00
2019-03-18T10:10:13.820Z,408.00
2019-03-18T10:11:13.771Z,424.00
2019-03-18T10:12:13.826Z,452.00
2019-03-18T10:13:13.754Z,424.00
2019-03-18T10:14:13.737Z,424.00
2019-03-18T10:15:13.726Z,424.00
2019-03-18T10:16:13.722Z,428.00
2019-03-18T10:17:13.707Z,396.00
2019-03-18T10:18:13.693Z,400.00
2019-03-18T10:19:19.771Z,384.00
2019-03-18T10:20:13.676Z,392.00
2019-03-18T10:21:13.705Z,396.00
2019-03-18T10:22:13.647Z,416.00
2019-03-18T10:23:13.633Z,420.00
2019-03-18T10:24:13.623Z,452.00
2019-03-18T10:25:13.675Z,424.00
2019-03-18T10:26:13.606Z,416.00
2019-03-18T10:27:13.633Z,392.00
2019-03-18T10:28:16.304Z,344.00
2019-03-18T10:29:13.565Z,316.00
2019-03-18T10:30:13.553Z,356.00
2019-03-18T10:31:13.553Z,356.00
2019-03-18T10:32:13.529Z,360.00
2019-03-18T10:33:13.531Z,344.00
2019-03-18T10:34:13.535Z,340.00
2019-03-18T10:35:13.586Z,352.00
2019-03-18T10:36:13.488Z,404.00
2019-03-18T10:37:13.508Z,404.00
2019-03-18T10:38:13.465Z,404.00
2019-03-18T10:39:13.452Z,416.00
2019-03-18T10:40:13.441Z,504.00
2019-03-18T10:41:13.431Z,508.00
2019-03-18T10:42:13.417Z,464.00
2019-03-18T10:43:13.413Z,468.00
2019-03-18T10:44:13.400Z,452.00
2019-03-18T10:45:13.390Z,452.00
2019-03-18T10:46:13.373Z,412.00
2019-03-18T10:47:13.365Z,428.00
2019-03-18T10:48:13.392Z,420.00
2019-03-18T10:49:13.339Z,400.00
2019-03-18T10:50:13.329Z,344.00
2019-03-18T10:51:19.405Z,300.00
2019-03-18T10:52:13.329Z,284.00
2019-03-18T10:53:13.313Z,292.00
2019-03-18T10:54:13.295Z,272.00
2019-03-18T10:55:13.270Z,288.00
2019-03-18T10:56:13.262Z,340.00
2019-03-18T10:57:13.250Z,380.00
2019-03-18T10:58:13.235Z,388.00
2019-03-18T10:59:13.234Z,380.00
2019-03-18T11:00:13.216Z,376.00
2019-03-18T11:01:13.209Z,332.00
2019-03-18T11:02:13.199Z,316.00
2019-03-18T11:03:13.182Z,232.00
2019-03-18T11:04:13.207Z,272.00
2019-03-18T11:05:13.158Z,284.00
2019-03-18T11:06:13.147Z,308.00
2019-03-18T11:07:13.133Z,320.00
2019-03-18T11:08:13.121Z,340.00
2019-03-18T11:09:13.108Z,356.00
2019-03-18T11:10:13.105Z,392.00
2019-03-18T11:11:13.089Z,412.00
2019-03-18T11:12:13.077Z,424.00
2019-03-18T11:13:13.060Z,448.00
2019-03-18T11:14:13.055Z,464.00
2019-03-18T11:15:13.083Z,424.00
2019-03-18T11:16:13.057Z,416.00
2019-03-18T11:17:13.045Z,400.00
2019-03-18T11:18:13.013Z,384.00
2019-03-18T11:19:12.993Z,388.00
2019-03-18T11:20:13.003Z,384.00
2019-03-18T11:21:12.981Z,352.00
2019-03-18T11:22:12.959Z,332.00
2019-03-18T11:23:19.042Z,308.00
2019-03-18T11:24:12.946Z,296.00
2019-03-18T11:25:12.923Z,320.00
2019-03-18T11:26:12.924Z,324.00
2019-03-18T11:27:12.907Z,344.00
2019-03-18T11:28:12.892Z,352.00
2019-03-18T11:29:12.888Z,348.00
2019-03-18T11:30:12.874Z,372.00
2019-03-18T11:31:12.880Z,388.00
2019-03-18T11:32:12.851Z,360.00
2019-03-18T11:33:12.832Z,308.00
2019-03-18T11:34:12.828Z,296.00
2019-03-18T11:35:12.810Z,332.00
2019-03-18T11:36:12.800Z,324.00
2019-03-18T11:37:12.801Z,324.00
2019-03-18T11:38:12.779Z,320.00
2019-03-18T11:39:12.764Z,304.00
2019-03-18T11:40:12.755Z,316.00
2019-03-18T11:41:12.743Z,312.00
2019-03-18T11:42:12.772Z,288.00
2019-03-18T11:43:12.717Z,288.00
2019-03-18T11:44:12.714Z,284.00
2019-03-18T11:45:12.701Z,248.00
2019-03-18T11:46:12.684Z,232.00
2019-03-18T11:47:12.675Z,224.00
2019-03-18T11:48:12.682Z,240.00
2019-03-18T11:49:12.648Z,236.00
2019-03-18T11:50:12.648Z,232.00
2019-03-18T11:51:12.635Z,236.00
2019-03-18T11:52:12.626Z,236.00
2019-03-18T11:53:14.702Z,224.00
2019-03-18T11:54:12.662Z,232.00
2019-03-18T11:55:18.968Z,224.00
2019-03-18T11:56:12.588Z,248.00
2019-03-18T11:57:12.565Z,248.00
2019-03-18T11:58:12.545Z,252.00
2019-03-18T11:59:12.537Z,280.00
2019-03-18T12:00:12.559Z,308.00
2019-03-18T12:01:12.516Z,288.00
2019-03-18T12:02:12.500Z,256.00
2019-03-18T12:03:12.487Z,228.00
2019-03-18T12:04:12.481Z,224.00
2019-03-18T12:05:12.466Z,244.00
2019-03-18T12:06:12.473Z,252.00
2019-03-18T12:07:12.449Z,292.00
2019-03-18T12:08:12.434Z,288.00
2019-03-18T12:09:12.461Z,248.00
2019-03-18T12:10:12.410Z,244.00
2019-03-18T12:11:12.403Z,244.00
2019-03-18T12:12:13.426Z,256.00
2019-03-18T12:13:12.380Z,228.00
2019-03-18T12:14:12.363Z,240.00
2019-03-18T12:15:12.364Z,244.00
2019-03-18T12:16:12.338Z,268.00
2019-03-18T12:17:12.337Z,268.00
2019-03-18T12:18:12.317Z,264.00
2019-03-18T12:19:12.303Z,264.00
2019-03-18T12:20:23.727Z,284.00
2019-03-18T12:21:15.916Z,344.00
2019-03-18T12:22:12.345Z,344.00
2019-03-18T12:23:12.269Z,316.00
2019-03-18T12:24:12.251Z,312.00
2019-03-18T12:25:12.234Z,304.00
2019-03-18T12:26:12.221Z,292.00
2019-03-18T12:27:18.603Z,276.00
2019-03-18T12:28:12.221Z,300.00
2019-03-18T12:29:12.188Z,280.00
2019-03-18T12:30:12.178Z,304.00
2019-03-18T12:31:12.172Z,328.00
2019-03-18T12:32:12.161Z,300.00
2019-03-18T12:33:12.148Z,284.00
2019-03-18T12:34:12.175Z,276.00
2019-03-18T12:35:12.124Z,260.00
2019-03-18T12:36:12.115Z,268.00
2019-03-18T12:37:12.113Z,300.00
2019-03-18T12:38:12.086Z,308.00